sensor_id;sensor_type;location;lat;lon;timestamp;pressure;altitude;pressure_sealevel;temperature;humidity
59987;BME280;46181;51.498;5.392;2023-02-16T00:02:22;102348.6;;;10;56.50977
59987;BME280;46181;51.498;5.392;2023-02-16T00:06:53;102342.3;;;9.97;56.61914
59987;BME280;46181;51.498;5.392;2023-02-16T00:11:27;102342.5;;;9.9;56.73242
59987;BME280;46181;51.498;5.392;2023-02-16T00:15:53;102345.7;;;9.9;56.7207
59987;BME280;46181;51.498;5.392;2023-02-16T00:20:25;102347.3;;;9.83;56.76855
59987;BME280;46181;51.498;5.392;2023-02-16T00:24:52;102340.4;;;9.79;56.63867
59987;BME280;46181;51.498;5.392;2023-02-16T00:29:26;102342.8;;;9.74;56.83496
59987;BME280;46181;51.498;5.392;2023-02-16T00:33:53;102344.2;;;9.73;56.81152
59987;BME280;46181;51.498;5.392;2023-02-16T00:38:23;102340.2;;;9.7;56.8877
59987;BME280;46181;51.498;5.392;2023-02-16T00:42:54;102336.8;;;9.68;56.97363
59987;BME280;46181;51.498;5.392;2023-02-16T00:47:28;102337.7;;;9.63;57.01172
59987;BME280;46181;51.498;5.392;2023-02-16T00:51:53;102335.5;;;9.65;57.05957
59987;BME280;46181;51.498;5.392;2023-02-16T00:56:26;102334.4;;;9.58;57.12891
59987;BME280;46181;51.498;5.392;2023-02-16T01:00:55;102329.7;;;9.57;57.11719
59987;BME280;46181;51.498;5.392;2023-02-16T01:05:23;102330;;;9.58;57.08398
59987;BME280;46181;51.498;5.392;2023-02-16T01:09:52;102326.3;;;9.57;57.06055
59987;BME280;46181;51.498;5.392;2023-02-16T01:14:23;102322.9;;;9.55;57.125
59987;BME280;46181;51.498;5.392;2023-02-16T01:18:53;102320.7;;;9.54;57.18066
59987;BME280;46181;51.498;5.392;2023-02-16T01:23:22;102326.3;;;9.53;57.16699
59987;BME280;46181;51.498;5.392;2023-02-16T01:27:52;102316.8;;;9.52;57.19922
59987;BME280;46181;51.498;5.392;2023-02-16T01:32:23;102317.5;;;9.5;57.20801
59987;BME280;46181;51.498;5.392;2023-02-16T01:36:54;102307.9;;;9.5;57.24219
59987;BME280;46181;51.498;5.392;2023-02-16T01:41:28;102297.4;;;9.47;57.31641
59987;BME280;46181;51.498;5.392;2023-02-16T01:45:56;102291.5;;;9.47;57.25977
59987;BME280;46181;51.498;5.392;2023-02-16T01:50:27;102280.1;;;9.41;57.27539
59987;BME280;46181;51.498;5.392;2023-02-16T01:54:57;102274.6;;;9.38;57.30371
59987;BME280;46181;51.498;5.392;2023-02-16T01:59:30;102275.2;;;9.32;57.44336
59987;BME280;46181;51.498;5.392;2023-02-16T02:03:52;102275.3;;;9.35;57.36816
59987;BME280;46181;51.498;5.392;2023-02-16T02:08:29;102278.8;;;9.29;57.51758
59987;BME280;46181;51.498;5.392;2023-02-16T02:12:58;102274.8;;;9.3;57.57422
59987;BME280;46181;51.498;5.392;2023-02-16T02:17:25;102271;;;9.3;57.58691
59987;BME280;46181;51.498;5.392;2023-02-16T02:22:08;102272.2;;;9.23;57.72266
59987;BME280;46181;51.498;5.392;2023-02-16T02:26:41;102264.5;;;9.24;57.73535
59987;BME280;46181;51.498;5.392;2023-02-16T02:30:56;102257.2;;;9.24;57.69043
59987;BME280;46181;51.498;5.392;2023-02-16T02:35:34;102256.3;;;9.22;57.69824
59987;BME280;46181;51.498;5.392;2023-02-16T02:40:00;102246.6;;;9.24;57.6123
59987;BME280;46181;51.498;5.392;2023-02-16T02:44:25;102246.7;;;9.26;57.60254
59987;BME280;46181;51.498;5.392;2023-02-16T02:48:52;102239.9;;;9.29;57.5625
59987;BME280;46181;51.498;5.392;2023-02-16T02:53:23;102232.3;;;9.33;57.56738
59987;BME280;46181;51.498;5.392;2023-02-16T02:57:54;102231.1;;;9.36;57.53711
59987;BME280;46181;51.498;5.392;2023-02-16T03:02:23;102229.8;;;9.42;57.45605
59987;BME280;46181;51.498;5.392;2023-02-16T03:06:55;102225.4;;;9.42;57.37793
59987;BME280;46181;51.498;5.392;2023-02-16T03:11:26;102230.2;;;9.39;57.3291
59987;BME280;46181;51.498;5.392;2023-02-16T03:15:55;102224.9;;;9.33;57.35449
59987;BME280;46181;51.498;5.392;2023-02-16T03:20:24;102220;;;9.27;57.43555
59987;BME280;46181;51.498;5.392;2023-02-16T03:24:53;102222.1;;;9.22;57.46387
59987;BME280;46181;51.498;5.392;2023-02-16T03:29:23;102226.5;;;9.17;57.55859
59987;BME280;46181;51.498;5.392;2023-02-16T03:33:53;102217.1;;;9.13;57.5752
59987;BME280;46181;51.498;5.392;2023-02-16T03:38:23;102219;;;9.1;57.60352
59987;BME280;46181;51.498;5.392;2023-02-16T03:43:00;102213.3;;;9.03;57.77539
59987;BME280;46181;51.498;5.392;2023-02-16T03:47:22;102203;;;9.08;57.69238
59987;BME280;46181;51.498;5.392;2023-02-16T03:51:53;102206.6;;;9.12;57.68457
59987;BME280;46181;51.498;5.392;2023-02-16T03:56:22;102207.5;;;9.2;57.67285
59987;BME280;46181;51.498;5.392;2023-02-16T04:00:53;102214.1;;;9.28;57.61816
59987;BME280;46181;51.498;5.392;2023-02-16T04:05:23;102212.1;;;9.35;57.58105
59987;BME280;46181;51.498;5.392;2023-02-16T04:09:53;102213.3;;;9.33;57.56738
59987;BME280;46181;51.498;5.392;2023-02-16T04:14:23;102209.3;;;9.34;57.60254
59987;BME280;46181;51.498;5.392;2023-02-16T04:18:53;102214.1;;;9.34;57.5918
59987;BME280;46181;51.498;5.392;2023-02-16T04:23:22;102209.8;;;9.32;57.62305
59987;BME280;46181;51.498;5.392;2023-02-16T04:27:53;102218.7;;;9.34;57.71484
59987;BME280;46181;51.498;5.392;2023-02-16T04:32:23;102222;;;9.37;57.6748
59987;BME280;46181;51.498;5.392;2023-02-16T04:36:53;102227.8;;;9.41;57.63477
59987;BME280;46181;51.498;5.392;2023-02-16T04:41:23;102216;;;9.42;57.6582
59987;BME280;46181;51.498;5.392;2023-02-16T04:45:53;102222.3;;;9.49;57.71094
59987;BME280;46181;51.498;5.392;2023-02-16T04:50:23;102208.3;;;9.59;57.70313
59987;BME280;46181;51.498;5.392;2023-02-16T04:54:53;102213.6;;;9.7;57.67383
59987;BME280;46181;51.498;5.392;2023-02-16T04:59:23;102220.8;;;9.81;57.59668
59987;BME280;46181;51.498;5.392;2023-02-16T05:03:53;102216;;;9.9;57.55273
59987;BME280;46181;51.498;5.392;2023-02-16T05:08:23;102214.6;;;9.97;57.47266
59987;BME280;46181;51.498;5.392;2023-02-16T05:12:53;102202.4;;;10.03;57.41309
59987;BME280;46181;51.498;5.392;2023-02-16T05:17:24;102205.3;;;10.08;57.375
59987;BME280;46181;51.498;5.392;2023-02-16T05:21:53;102208.5;;;10.12;57.40234
59987;BME280;46181;51.498;5.392;2023-02-16T05:26:23;102193.4;;;10.2;57.44629
59987;BME280;46181;51.498;5.392;2023-02-16T05:30:53;102203.7;;;10.26;57.39941
59987;BME280;46181;51.498;5.392;2023-02-16T05:35:23;102223.1;;;10.35;57.29688
59987;BME280;46181;51.498;5.392;2023-02-16T05:39:53;102180.4;;;10.41;57.23828
59987;BME280;46181;51.498;5.392;2023-02-16T05:44:23;102189.2;;;10.46;57.1875
59987;BME280;46181;51.498;5.392;2023-02-16T05:48:53;102184.3;;;10.49;57.14746
59987;BME280;46181;51.498;5.392;2023-02-16T05:53:23;102205.3;;;10.5;57.1377
59987;BME280;46181;51.498;5.392;2023-02-16T05:57:53;102200.3;;;10.52;57.10547
59987;BME280;46181;51.498;5.392;2023-02-16T06:02:23;102208.3;;;10.53;57.03906
59987;BME280;46181;51.498;5.392;2023-02-16T06:06:53;102188.7;;;10.49;57.10352
59987;BME280;46181;51.498;5.392;2023-02-16T06:11:23;102201.8;;;10.53;57.0625
59987;BME280;46181;51.498;5.392;2023-02-16T06:15:54;102182.3;;;10.53;57.07324
59987;BME280;46181;51.498;5.392;2023-02-16T06:20:23;102180.1;;;10.54;57.08594
59987;BME280;46181;51.498;5.392;2023-02-16T06:24:53;102183.3;;;10.54;57.12109
59987;BME280;46181;51.498;5.392;2023-02-16T06:29:23;102177.3;;;10.54;57.08691
59987;BME280;46181;51.498;5.392;2023-02-16T06:33:53;102193;;;10.54;57.10938
59987;BME280;46181;51.498;5.392;2023-02-16T06:38:23;102199.2;;;10.56;57.13281
59987;BME280;46181;51.498;5.392;2023-02-16T06:42:53;102207.5;;;10.6;57.12793
59987;BME280;46181;51.498;5.392;2023-02-16T06:47:23;102196.1;;;10.62;57.17676
59987;BME280;46181;51.498;5.392;2023-02-16T06:51:53;102222.2;;;10.66;57.125
59987;BME280;46181;51.498;5.392;2023-02-16T06:56:23;102227.3;;;10.71;57.1416
59987;BME280;46181;51.498;5.392;2023-02-16T07:00:53;102224.2;;;10.74;57
59987;BME280;46181;51.498;5.392;2023-02-16T07:05:23;102218.1;;;10.78;56.94824
59987;BME280;46181;51.498;5.392;2023-02-16T07:09:53;102222.2;;;10.79;56.95117
59987;BME280;46181;51.498;5.392;2023-02-16T07:14:23;102224.8;;;10.86;56.90234
59987;BME280;46181;51.498;5.392;2023-02-16T07:18:53;102228.5;;;10.95;56.92578
59987;BME280;46181;51.498;5.392;2023-02-16T07:23:23;102223.1;;;11.02;56.77637
59987;BME280;46181;51.498;5.392;2023-02-16T07:27:53;102229.6;;;11.07;56.74902
59987;BME280;46181;51.498;5.392;2023-02-16T07:32:23;102231.1;;;11.11;56.66406
59987;BME280;46181;51.498;5.392;2023-02-16T07:36:53;102235.6;;;11.13;56.64453
59987;BME280;46181;51.498;5.392;2023-02-16T07:41:23;102225.4;;;11.15;56.58984
59987;BME280;46181;51.498;5.392;2023-02-16T07:45:53;102229.7;;;11.16;56.71582
59987;BME280;46181;51.498;5.392;2023-02-16T07:50:23;102241.4;;;11.23;56.68066
59987;BME280;46181;51.498;5.392;2023-02-16T07:54:53;102245.5;;;11.3;56.67676
59987;BME280;46181;51.498;5.392;2023-02-16T07:59:28;102236.5;;;11.38;56.5752
59987;BME280;46181;51.498;5.392;2023-02-16T08:03:53;102239;;;11.41;56.47656
59987;BME280;46181;51.498;5.392;2023-02-16T08:08:23;102235.1;;;11.42;56.42285
59987;BME280;46181;51.498;5.392;2023-02-16T08:12:53;102241.9;;;11.4;56.35254
59987;BME280;46181;51.498;5.392;2023-02-16T08:17:23;102240.3;;;11.39;56.52051
59987;BME280;46181;51.498;5.392;2023-02-16T08:21:53;102241.7;;;11.45;56.57324
59987;BME280;46181;51.498;5.392;2023-02-16T08:26:25;102244.8;;;11.5;56.52344
59987;BME280;46181;51.498;5.392;2023-02-16T08:30:53;102259.3;;;11.61;56.50391
59987;BME280;46181;51.498;5.392;2023-02-16T08:35:23;102254;;;11.73;56.40723
59987;BME280;46181;51.498;5.392;2023-02-16T08:39:53;102253.1;;;11.8;56.29102
59987;BME280;46181;51.498;5.392;2023-02-16T08:44:24;102248.9;;;11.86;56.27637
59987;BME280;46181;51.498;5.392;2023-02-16T08:48:53;102258.9;;;12.01;56.20605
59987;BME280;46181;51.498;5.392;2023-02-16T08:53:23;102254;;;12.15;56.06445
59987;BME280;46181;51.498;5.392;2023-02-16T08:57:53;102266.6;;;12.24;55.92969
59987;BME280;46181;51.498;5.392;2023-02-16T09:02:23;102278.6;;;12.33;55.7832
59987;BME280;46181;51.498;5.392;2023-02-16T09:06:54;102282.9;;;12.41;55.66797
59987;BME280;46181;51.498;5.392;2023-02-16T09:11:23;102289.7;;;12.5;55.56641
59987;BME280;46181;51.498;5.392;2023-02-16T09:15:53;102289.7;;;12.61;55.45703
59987;BME280;46181;51.498;5.392;2023-02-16T09:20:23;102288.5;;;12.68;55.37402
59987;BME280;46181;51.498;5.392;2023-02-16T09:24:53;102283;;;12.7;55.19531
59987;BME280;46181;51.498;5.392;2023-02-16T09:29:23;102293.2;;;12.71;55.11719
59987;BME280;46181;51.498;5.392;2023-02-16T09:33:54;102292.3;;;12.68;55.34082
59987;BME280;46181;51.498;5.392;2023-02-16T09:38:23;102275.7;;;12.61;55.69336
59987;BME280;46181;51.498;5.392;2023-02-16T09:43:03;102262.3;;;12.46;56.00293
59987;BME280;46181;51.498;5.392;2023-02-16T09:47:27;102262;;;12.41;56.2002
59987;BME280;46181;51.498;5.392;2023-02-16T09:51:56;102268.8;;;12.35;56.57715
59987;BME280;46181;51.498;5.392;2023-02-16T09:56:30;102277.2;;;12.28;57.05371
59987;BME280;46181;51.498;5.392;2023-02-16T10:00:58;102282.8;;;12.28;57.39258
59987;BME280;46181;51.498;5.392;2023-02-16T10:05:34;102277.5;;;12.22;57.82617
59987;BME280;46181;51.498;5.392;2023-02-16T10:09:55;102276;;;12.24;58.03223
59987;BME280;46181;51.498;5.392;2023-02-16T10:14:28;102277.7;;;12.18;58.15918
59987;BME280;46181;51.498;5.392;2023-02-16T10:18:56;102278.7;;;12.19;58.44238
59987;BME280;46181;51.498;5.392;2023-02-16T10:23:36;102276.5;;;12.2;58.69336
59987;BME280;46181;51.498;5.392;2023-02-16T10:28:02;102275.2;;;12.39;58.78711
59987;BME280;46181;51.498;5.392;2023-02-16T10:32:30;102277.7;;;12.52;58.83789
59987;BME280;46181;51.498;5.392;2023-02-16T10:37:05;102274.2;;;12.59;58.8584
59987;BME280;46181;51.498;5.392;2023-02-16T10:41:29;102275.9;;;12.69;58.79297
59987;BME280;46181;51.498;5.392;2023-02-16T10:45:56;102282.9;;;12.77;58.85938
59987;BME280;46181;51.498;5.392;2023-02-16T10:50:29;102284.4;;;12.81;58.83105
59987;BME280;46181;51.498;5.392;2023-02-16T10:54:53;102281.3;;;12.83;58.82324
59987;BME280;46181;51.498;5.392;2023-02-16T10:59:30;102312.9;;;12.75;58.81152
59987;BME280;46181;51.498;5.392;2023-02-16T11:03:54;102285.7;;;12.6;58.82617
59987;BME280;46181;51.498;5.392;2023-02-16T11:08:23;102297;;;12.46;59.04492
59987;BME280;46181;51.498;5.392;2023-02-16T11:12:56;102286.3;;;12.41;59.41113
59987;BME280;46181;51.498;5.392;2023-02-16T11:17:24;102276.5;;;12.4;59.72559
59987;BME280;46181;51.498;5.392;2023-02-16T11:21:57;102266.1;;;12.41;59.99805
59987;BME280;46181;51.498;5.392;2023-02-16T11:26:33;102264.3;;;12.44;60.39844
59987;BME280;46181;51.498;5.392;2023-02-16T11:30:54;102261.2;;;12.67;60.31641
59987;BME280;46181;51.498;5.392;2023-02-16T11:35:25;102261.4;;;12.97;60.43652
59987;BME280;46181;51.498;5.392;2023-02-16T11:39:56;102253.1;;;13.28;60.30957
59987;BME280;46181;51.498;5.392;2023-02-16T11:44:33;102247.6;;;13.41;60.39551
59987;BME280;46181;51.498;5.392;2023-02-16T11:48:53;102241.1;;;13.61;60.12891
59987;BME280;46181;51.498;5.392;2023-02-16T11:53:31;102230.4;;;13.71;60.3584
59987;BME280;46181;51.498;5.392;2023-02-16T11:57:53;102229.9;;;14.01;60.22949
59987;BME280;46181;51.498;5.392;2023-02-16T12:02:43;102219.8;;;14.11;60.35547
59987;BME280;46181;51.498;5.392;2023-02-16T12:07:00;102218.1;;;14.28;60.00488
59987;BME280;46181;51.498;5.392;2023-02-16T12:11:32;102215.7;;;14.41;59.94336
59987;BME280;46181;51.498;5.392;2023-02-16T12:15:58;102210.5;;;14.54;59.75684
59987;BME280;46181;51.498;5.392;2023-02-16T12:20:35;102207.3;;;14.62;59.7793
59987;BME280;46181;51.498;5.392;2023-02-16T12:25:00;102200.3;;;14.87;59.70898
59987;BME280;46181;51.498;5.392;2023-02-16T12:29:41;102185.2;;;14.94;59.66309
59987;BME280;46181;51.498;5.392;2023-02-16T12:33:59;102173;;;14.85;59.10547
59987;BME280;46181;51.498;5.392;2023-02-16T12:38:32;102171.6;;;14.61;58.81152
59987;BME280;46181;51.498;5.392;2023-02-16T12:43:07;102167.3;;;14.38;59.34766
59987;BME280;46181;51.498;5.392;2023-02-16T12:47:28;102154.8;;;14.42;59.32129
59987;BME280;46181;51.498;5.392;2023-02-16T12:51:57;102151.3;;;14.37;59.37012
59987;BME280;46181;51.498;5.392;2023-02-16T12:56:25;102149;;;14.36;59.36914
59987;BME280;46181;51.498;5.392;2023-02-16T13:00:55;102144.6;;;14.34;59.28613
59987;BME280;46181;51.498;5.392;2023-02-16T13:05:26;102146.1;;;14.36;59.42578
59987;BME280;46181;51.498;5.392;2023-02-16T13:09:59;102139.8;;;14.45;59.51758
59987;BME280;46181;51.498;5.392;2023-02-16T13:14:26;102132;;;14.52;59.05078
59987;BME280;46181;51.498;5.392;2023-02-16T13:18:55;102122.8;;;14.58;58.91016
59987;BME280;46181;51.498;5.392;2023-02-16T13:27:58;102115.7;;;14.74;58.99902
59987;BME280;46181;51.498;5.392;2023-02-16T13:32:41;102105.1;;;14.86;58.85645
59987;BME280;46181;51.498;5.392;2023-02-16T13:37:04;102092.2;;;14.96;58.75586
59987;BME280;46181;51.498;5.392;2023-02-16T13:41:39;102089.5;;;15.07;58.4873
59987;BME280;46181;51.498;5.392;2023-02-16T13:45:54;102081.1;;;15.34;58.125
59987;BME280;46181;51.498;5.392;2023-02-16T13:50:33;102072.1;;;15.52;58.125
59987;BME280;46181;51.498;5.392;2023-02-16T13:54:56;102070.4;;;15.86;57.62305
59987;BME280;46181;51.498;5.392;2023-02-16T14:03:53;102058.7;;;16.12;56.87012
59987;BME280;46181;51.498;5.392;2023-02-16T14:08:28;102053.9;;;16.05;56.57617
59987;BME280;46181;51.498;5.392;2023-02-16T14:12:53;102049.3;;;16.05;56.43848
59987;BME280;46181;51.498;5.392;2023-02-16T14:17:32;102043.3;;;15.98;56.28223
59987;BME280;46181;51.498;5.392;2023-02-16T14:21:55;102046.5;;;16.02;56.23047
59987;BME280;46181;51.498;5.392;2023-02-16T14:26:23;102043.2;;;16.09;56.04492
59987;BME280;46181;51.498;5.392;2023-02-16T14:30:56;102035.5;;;16.13;56.01563
59987;BME280;46181;51.498;5.392;2023-02-16T14:35:27;102030.9;;;16.11;55.71777
59987;BME280;46181;51.498;5.392;2023-02-16T14:39:55;102025.2;;;16.1;55.89746
59987;BME280;46181;51.498;5.392;2023-02-16T14:44:43;102021.6;;;16;56.13574
59987;BME280;46181;51.498;5.392;2023-02-16T14:57:58;102011.8;;;16.19;55.90918
59987;BME280;46181;51.498;5.392;2023-02-16T15:02:38;102008.3;;;16.26;55.85059
59987;BME280;46181;51.498;5.392;2023-02-16T15:06:54;102004.9;;;16.39;55.30664
59987;BME280;46181;51.498;5.392;2023-02-16T15:11:33;102002.9;;;16.34;55.42578
59987;BME280;46181;51.498;5.392;2023-02-16T15:15:56;102003.2;;;16.43;55.27832
59987;BME280;46181;51.498;5.392;2023-02-16T15:20:30;102000.4;;;16.45;54.9834
59987;BME280;46181;51.498;5.392;2023-02-16T15:25:03;102008.1;;;16.42;54.5918
59987;BME280;46181;51.498;5.392;2023-02-16T15:29:32;102008.2;;;16.33;54.53418
59987;BME280;46181;51.498;5.392;2023-02-16T15:34:02;102004.9;;;16.37;54.67676
59987;BME280;46181;51.498;5.392;2023-02-16T15:38:31;102007.6;;;16.39;54.58887
59987;BME280;46181;51.498;5.392;2023-02-16T15:42:53;101998;;;16.46;54.35547
59987;BME280;46181;51.498;5.392;2023-02-16T15:47:25;102004.1;;;16.47;54.32227
59987;BME280;46181;51.498;5.392;2023-02-16T15:51:53;102005.1;;;16.47;54.47168
59987;BME280;46181;51.498;5.392;2023-02-16T15:56:32;101992.6;;;16.39;54.81641
59987;BME280;46181;51.498;5.392;2023-02-16T16:00:53;101998.3;;;16.41;54.75098
59987;BME280;46181;51.498;5.392;2023-02-16T16:05:30;101997.2;;;16.32;55.12695
59987;BME280;46181;51.498;5.392;2023-02-16T16:09:53;102003.9;;;16.29;55.13477
59987;BME280;46181;51.498;5.392;2023-02-16T16:14:24;102006.4;;;16.17;55.63379
59987;BME280;46181;51.498;5.392;2023-02-16T16:18:54;102010.5;;;15.97;56.18848
59987;BME280;46181;51.498;5.392;2023-02-16T16:23:34;102004.8;;;15.68;57.24609
59987;BME280;46181;51.498;5.392;2023-02-16T16:27:55;102008.4;;;15.51;58.00977
59987;BME280;46181;51.498;5.392;2023-02-16T16:32:30;102010.8;;;15.28;58.76367
59987;BME280;46181;51.498;5.392;2023-02-16T16:37:01;102009.5;;;15.13;59.33594
59987;BME280;46181;51.498;5.392;2023-02-16T16:41:33;102013.1;;;14.99;59.88672
59987;BME280;46181;51.498;5.392;2023-02-16T16:45:54;102010.1;;;14.96;60.0293
59987;BME280;46181;51.498;5.392;2023-02-16T16:50:43;102006.4;;;14.7;60.90234
59987;BME280;46181;51.498;5.392;2023-02-16T16:54:53;102007.4;;;14.73;60.85059
59987;BME280;46181;51.498;5.392;2023-02-16T16:59:24;102007.5;;;14.65;61.11133
59987;BME280;46181;51.498;5.392;2023-02-16T17:03:53;102007.7;;;14.63;61.44922
59987;BME280;46181;51.498;5.392;2023-02-16T17:08:23;102010.6;;;14.56;61.78027
59987;BME280;46181;51.498;5.392;2023-02-16T17:12:54;102012.2;;;14.51;62.13574
59987;BME280;46181;51.498;5.392;2023-02-16T17:17:23;102005.9;;;14.49;62.28027
59987;BME280;46181;51.498;5.392;2023-02-16T17:21:53;102004.6;;;14.44;62.62598
59987;BME280;46181;51.498;5.392;2023-02-16T17:26:23;101995.7;;;14.44;62.80566
59987;BME280;46181;51.498;5.392;2023-02-16T17:30:54;101996.1;;;14.45;63.0127
59987;BME280;46181;51.498;5.392;2023-02-16T17:35:23;101992.1;;;14.47;63.15234
59987;BME280;46181;51.498;5.392;2023-02-16T17:39:53;101988.8;;;14.5;63.25781
59987;BME280;46181;51.498;5.392;2023-02-16T17:44:23;101994.3;;;14.5;63.41602
59987;BME280;46181;51.498;5.392;2023-02-16T17:48:54;101988.3;;;14.51;63.47461
59987;BME280;46181;51.498;5.392;2023-02-16T17:53:25;101978.6;;;14.52;63.58887
59987;BME280;46181;51.498;5.392;2023-02-16T17:57:53;101987.7;;;14.5;63.68848
59987;BME280;46181;51.498;5.392;2023-02-16T18:02:23;101990.7;;;14.53;63.74902
59987;BME280;46181;51.498;5.392;2023-02-16T18:06:53;101987.8;;;14.55;63.78711
59987;BME280;46181;51.498;5.392;2023-02-16T18:11:23;101974.8;;;14.56;63.80957
59987;BME280;46181;51.498;5.392;2023-02-16T18:15:54;101981.5;;;14.57;63.91406
59987;BME280;46181;51.498;5.392;2023-02-16T18:20:25;101982.2;;;14.54;63.96582
59987;BME280;46181;51.498;5.392;2023-02-16T18:24:53;101983.5;;;14.57;63.95801
59987;BME280;46181;51.498;5.392;2023-02-16T18:29:23;101985.1;;;14.58;64.0293
59987;BME280;46181;51.498;5.392;2023-02-16T18:33:53;101983.3;;;14.56;64.19629
59987;BME280;46181;51.498;5.392;2023-02-16T18:38:23;101987.3;;;14.58;64.1875
59987;BME280;46181;51.498;5.392;2023-02-16T18:42:53;101977.7;;;14.58;64.16504
59987;BME280;46181;51.498;5.392;2023-02-16T18:47:23;101971.7;;;14.6;64.20215
59987;BME280;46181;51.498;5.392;2023-02-16T18:51:53;101967.9;;;14.6;64.23535
59987;BME280;46181;51.498;5.392;2023-02-16T18:56:23;101959.1;;;14.58;64.26758
59987;BME280;46181;51.498;5.392;2023-02-16T19:00:53;101959.8;;;14.58;64.25586
59987;BME280;46181;51.498;5.392;2023-02-16T19:05:23;101973;;;14.5;64.50488
59987;BME280;46181;51.498;5.392;2023-02-16T19:09:53;101962.9;;;14.49;64.54883
59987;BME280;46181;51.498;5.392;2023-02-16T19:14:23;101964.8;;;14.49;64.62988
59987;BME280;46181;51.498;5.392;2023-02-16T19:18:53;101969.8;;;14.47;64.71582
59987;BME280;46181;51.498;5.392;2023-02-16T19:23:23;101962.9;;;14.47;64.7627
59987;BME280;46181;51.498;5.392;2023-02-16T19:27:53;101956;;;14.41;64.83203
59987;BME280;46181;51.498;5.392;2023-02-16T19:32:23;101962.1;;;14.38;64.91699
59987;BME280;46181;51.498;5.392;2023-02-16T19:36:53;101960.3;;;14.3;65.15527
59987;BME280;46181;51.498;5.392;2023-02-16T19:41:25;101961.2;;;14.27;65.34473
59987;BME280;46181;51.498;5.392;2023-02-16T19:45:53;101965.3;;;14.25;65.36328
59987;BME280;46181;51.498;5.392;2023-02-16T19:50:23;101972;;;14.28;65.49121
59987;BME280;46181;51.498;5.392;2023-02-16T19:54:53;101970.4;;;14.26;65.5127
59987;BME280;46181;51.498;5.392;2023-02-16T19:59:23;101969.5;;;14.22;65.70996
59987;BME280;46181;51.498;5.392;2023-02-16T20:03:54;101969;;;14.24;65.83691
59987;BME280;46181;51.498;5.392;2023-02-16T20:08:23;101965.5;;;14.24;65.91797
59987;BME280;46181;51.498;5.392;2023-02-16T20:12:53;101962.6;;;14.22;66.02734
59987;BME280;46181;51.498;5.392;2023-02-16T20:17:23;101958.2;;;14.2;66.04688
59987;BME280;46181;51.498;5.392;2023-02-16T20:21:53;101970.5;;;14.21;66.08203
59987;BME280;46181;51.498;5.392;2023-02-16T20:26:25;101955.8;;;14.2;66.12598
59987;BME280;46181;51.498;5.392;2023-02-16T20:30:53;101954.4;;;14.2;66.25098
59987;BME280;46181;51.498;5.392;2023-02-16T20:35:24;101963;;;14.2;66.23828
59987;BME280;46181;51.498;5.392;2023-02-16T20:39:53;101972.4;;;14.21;66.3877
59987;BME280;46181;51.498;5.392;2023-02-16T20:44:23;101963.7;;;14.2;66.5
59987;BME280;46181;51.498;5.392;2023-02-16T20:48:53;101953.8;;;14.21;66.49121
59987;BME280;46181;51.498;5.392;2023-02-16T20:53:23;101948.7;;;14.23;66.60645
59987;BME280;46181;51.498;5.392;2023-02-16T20:57:53;101947.8;;;14.24;66.63184
59987;BME280;46181;51.498;5.392;2023-02-16T21:02:23;101942.6;;;14.28;66.77246
59987;BME280;46181;51.498;5.392;2023-02-16T21:06:53;101931.1;;;14.3;66.73047
59987;BME280;46181;51.498;5.392;2023-02-16T21:11:24;101922;;;14.28;66.88574
59987;BME280;46181;51.498;5.392;2023-02-16T21:15:53;101931.2;;;14.32;66.99316
59987;BME280;46181;51.498;5.392;2023-02-16T21:20:23;101929.6;;;14.36;67.08984
59987;BME280;46181;51.498;5.392;2023-02-16T21:24:53;101938.8;;;14.4;67.12988
59987;BME280;46181;51.498;5.392;2023-02-16T21:29:23;101933.9;;;14.42;67.17969
59987;BME280;46181;51.498;5.392;2023-02-16T21:33:53;101933.6;;;14.45;67.16113
59987;BME280;46181;51.498;5.392;2023-02-16T21:38:23;101938.6;;;14.46;67.17383
59987;BME280;46181;51.498;5.392;2023-02-16T21:42:53;101937.8;;;14.52;67.19434
59987;BME280;46181;51.498;5.392;2023-02-16T21:47:23;101932.3;;;14.57;67.10938
59987;BME280;46181;51.498;5.392;2023-02-16T21:51:54;101930.8;;;14.59;67.08008
59987;BME280;46181;51.498;5.392;2023-02-16T21:56:36;101931.1;;;14.55;67.25586
59987;BME280;46181;51.498;5.392;2023-02-16T22:00:57;101935;;;14.65;66.99902
59987;BME280;46181;51.498;5.392;2023-02-16T22:05:24;101929;;;14.71;66.90527
59987;BME280;46181;51.498;5.392;2023-02-16T22:09:53;101924.2;;;14.76;66.78809
59987;BME280;46181;51.498;5.392;2023-02-16T22:14:24;101924.2;;;14.74;66.78418
59987;BME280;46181;51.498;5.392;2023-02-16T22:18:58;101923;;;14.77;66.73438
59987;BME280;46181;51.498;5.392;2023-02-16T22:23:23;101910.1;;;14.77;66.74609
59987;BME280;46181;51.498;5.392;2023-02-16T22:27:53;101900.2;;;14.78;66.81543
59987;BME280;46181;51.498;5.392;2023-02-16T22:32:23;101900.1;;;14.83;66.72949
59987;BME280;46181;51.498;5.392;2023-02-16T22:36:53;101905.2;;;14.82;66.7627
59987;BME280;46181;51.498;5.392;2023-02-16T22:41:24;101902.1;;;14.85;66.72266
59987;BME280;46181;51.498;5.392;2023-02-16T22:45:53;101902;;;14.88;66.61328
59987;BME280;46181;51.498;5.392;2023-02-16T22:50:23;101909.5;;;14.9;66.67383
59987;BME280;46181;51.498;5.392;2023-02-16T22:54:53;101905.5;;;14.89;66.7168
59987;BME280;46181;51.498;5.392;2023-02-16T22:59:23;101908.1;;;14.93;66.70117
59987;BME280;46181;51.498;5.392;2023-02-16T23:03:54;101911.1;;;14.95;66.63574
59987;BME280;46181;51.498;5.392;2023-02-16T23:08:23;101911.5;;;14.97;66.67188
59987;BME280;46181;51.498;5.392;2023-02-16T23:12:53;101912.3;;;14.98;66.62988
59987;BME280;46181;51.498;5.392;2023-02-16T23:17:23;101920.6;;;15;66.59863
59987;BME280;46181;51.498;5.392;2023-02-16T23:21:54;101923.2;;;15;66.65527
59987;BME280;46181;51.498;5.392;2023-02-16T23:26:25;101926.3;;;15.04;66.55859